sensor_id;sensor_type;location;lat;lon;timestamp;noise_LAeq;noise_LA_min;noise_LA_max;noise_LA01;noise_LA95
45964;Laerm;31671;48.092;11.842;2023-08-20T00:01:25;28.83;27.63;31.20;;
45964;Laerm;31671;48.092;11.842;2023-08-20T00:03:51;28.91;27.57;31.63;;
45964;Laerm;31671;48.092;11.842;2023-08-20T00:06:17;28.80;27.47;30.03;;
45964;Laerm;31671;48.092;11.842;2023-08-20T00:08:43;28.80;27.30;30.27;;
45964;Laerm;31671;48.092;11.842;2023-08-20T00:11:09;28.82;27.49;30.30;;
45964;Laerm;31671;48.092;11.842;2023-08-20T00:13:36;28.83;27.45;33.57;;
45964;Laerm;31671;48.092;11.842;2023-08-20T00:16:02;29.02;27.54;33.49;;
45964;Laerm;31671;48.092;11.842;2023-08-20T00:18:28;28.83;27.41;32.10;;
45964;Laerm;31671;48.092;11.842;2023-08-20T00:20:54;28.82;27.35;30.06;;
45964;Laerm;31671;48.092;11.842;2023-08-20T00:23:20;28.80;27.34;34.01;;
45964;Laerm;31671;48.092;11.842;2023-08-20T00:25:45;28.78;27.51;30.32;;
45964;Laerm;31671;48.092;11.842;2023-08-20T00:28:11;28.80;27.60;33.94;;
45964;Laerm;31671;48.092;11.842;2023-08-20T00:30:37;28.80;27.53;29.97;;
45964;Laerm;31671;48.092;11.842;2023-08-20T00:33:02;29.66;27.63;33.80;;
45964;Laerm;31671;48.092;11.842;2023-08-20T00:35:28;28.84;27.33;35.36;;
45964;Laerm;31671;48.092;11.842;2023-08-20T00:37:54;28.84;27.49;36.03;;
45964;Laerm;31671;48.092;11.842;2023-08-20T00:40:20;28.83;27.39;30.00;;
45964;Laerm;31671;48.092;11.842;2023-08-20T00:42:45;28.92;27.58;31.40;;
45964;Laerm;31671;48.092;11.842;2023-08-20T00:45:11;28.91;27.56;31.20;;
45964;Laerm;31671;48.092;11.842;2023-08-20T00:47:36;28.87;27.66;30.50;;
45964;Laerm;31671;48.092;11.842;2023-08-20T00:50:02;28.88;27.62;35.31;;
45964;Laerm;31671;48.092;11.842;2023-08-20T00:52:28;28.93;27.62;36.36;;
45964;Laerm;31671;48.092;11.842;2023-08-20T00:54:55;28.92;27.62;30.01;;
45964;Laerm;31671;48.092;11.842;2023-08-20T00:57:20;28.90;27.42;31.67;;
45964;Laerm;31671;48.092;11.842;2023-08-20T00:59:48;28.90;27.44;30.20;;
45964;Laerm;31671;48.092;11.842;2023-08-20T01:02:13;29.00;27.65;30.90;;
45964;Laerm;31671;48.092;11.842;2023-08-20T01:04:40;28.92;27.63;30.82;;
45964;Laerm;31671;48.092;11.842;2023-08-20T01:07:28;28.94;27.60;30.16;;
45964;Laerm;31671;48.092;11.842;2023-08-20T01:12:17;28.96;27.58;31.31;;
45964;Laerm;31671;48.092;11.842;2023-08-20T01:14:44;28.93;27.60;35.40;;
45964;Laerm;31671;48.092;11.842;2023-08-20T01:17:10;28.93;27.66;30.24;;
45964;Laerm;31671;48.092;11.842;2023-08-20T01:19:36;28.96;27.73;30.16;;
45964;Laerm;31671;48.092;11.842;2023-08-20T01:29:56;28.99;27.66;30.17;;
45964;Laerm;31671;48.092;11.842;2023-08-20T01:32:24;28.96;27.75;31.61;;
45964;Laerm;31671;48.092;11.842;2023-08-20T01:34:49;29.01;27.85;30.43;;
45964;Laerm;31671;48.092;11.842;2023-08-20T01:37:15;28.96;27.62;30.34;;
45964;Laerm;31671;48.092;11.842;2023-08-20T01:39:41;29.02;27.64;33.26;;
45964;Laerm;31671;48.092;11.842;2023-08-20T01:42:07;28.96;27.75;30.04;;
45964;Laerm;31671;48.092;11.842;2023-08-20T01:44:32;28.96;27.75;30.20;;
45964;Laerm;31671;48.092;11.842;2023-08-20T01:46:58;28.96;27.74;30.32;;
45964;Laerm;31671;48.092;11.842;2023-08-20T01:49:24;28.97;27.67;33.69;;
45964;Laerm;31671;48.092;11.842;2023-08-20T01:51:49;29.00;27.59;30.22;;
45964;Laerm;31671;48.092;11.842;2023-08-20T01:54:15;28.96;27.46;30.15;;
45964;Laerm;31671;48.092;11.842;2023-08-20T01:56:41;28.93;27.58;30.10;;
45964;Laerm;31671;48.092;11.842;2023-08-20T01:59:06;28.97;27.64;34.37;;
45964;Laerm;31671;48.092;11.842;2023-08-20T02:01:32;28.97;27.50;30.09;;
45964;Laerm;31671;48.092;11.842;2023-08-20T02:03:58;28.98;27.62;30.23;;
45964;Laerm;31671;48.092;11.842;2023-08-20T02:06:24;29.00;27.25;31.61;;
45964;Laerm;31671;48.092;11.842;2023-08-20T02:08:50;28.96;27.70;30.33;;
45964;Laerm;31671;48.092;11.842;2023-08-20T02:11:15;28.95;27.57;34.82;;
45964;Laerm;31671;48.092;11.842;2023-08-20T02:13:44;28.96;27.67;30.03;;
45964;Laerm;31671;48.092;11.842;2023-08-20T02:16:10;28.97;27.55;31.44;;
45964;Laerm;31671;48.092;11.842;2023-08-20T02:18:36;29.02;27.49;30.62;;
45964;Laerm;31671;48.092;11.842;2023-08-20T02:21:02;28.97;27.40;32.84;;
45964;Laerm;31671;48.092;11.842;2023-08-20T02:23:27;28.97;27.56;30.14;;
45964;Laerm;31671;48.092;11.842;2023-08-20T02:25:53;29.00;27.67;30.16;;
45964;Laerm;31671;48.092;11.842;2023-08-20T02:28:20;28.98;27.60;30.17;;
45964;Laerm;31671;48.092;11.842;2023-08-20T02:30:46;28.99;27.69;30.28;;
45964;Laerm;31671;48.092;11.842;2023-08-20T02:33:12;29.09;27.57;46.08;;
45964;Laerm;31671;48.092;11.842;2023-08-20T02:35:38;29.03;27.71;32.47;;
45964;Laerm;31671;48.092;11.842;2023-08-20T02:38:04;29.04;27.86;30.16;;
45964;Laerm;31671;48.092;11.842;2023-08-20T02:40:30;29.04;27.66;30.56;;
45964;Laerm;31671;48.092;11.842;2023-08-20T02:42:56;29.02;27.73;30.33;;
45964;Laerm;31671;48.092;11.842;2023-08-20T02:45:23;29.08;27.75;32.86;;
45964;Laerm;31671;48.092;11.842;2023-08-20T02:47:51;29.00;27.72;30.35;;
45964;Laerm;31671;48.092;11.842;2023-08-20T02:50:18;29.04;27.90;30.56;;
45964;Laerm;31671;48.092;11.842;2023-08-20T02:52:44;29.02;27.36;30.03;;
45964;Laerm;31671;48.092;11.842;2023-08-20T02:55:10;29.01;27.74;30.43;;
45964;Laerm;31671;48.092;11.842;2023-08-20T02:57:36;29.02;27.62;30.19;;
45964;Laerm;31671;48.092;11.842;2023-08-20T03:00:02;29.06;27.72;30.81;;
45964;Laerm;31671;48.092;11.842;2023-08-20T03:02:28;29.21;27.75;32.53;;
45964;Laerm;31671;48.092;11.842;2023-08-20T03:04:53;29.02;27.50;30.23;;
45964;Laerm;31671;48.092;11.842;2023-08-20T03:07:19;29.03;27.63;30.46;;
45964;Laerm;31671;48.092;11.842;2023-08-20T03:09:45;29.03;27.74;30.18;;
45964;Laerm;31671;48.092;11.842;2023-08-20T03:12:10;29.95;27.73;34.09;;
45964;Laerm;31671;48.092;11.842;2023-08-20T03:14:36;29.00;27.60;30.20;;
45964;Laerm;31671;48.092;11.842;2023-08-20T03:17:02;29.05;27.85;30.52;;
45964;Laerm;31671;48.092;11.842;2023-08-20T03:19:29;29.01;27.62;30.11;;
45964;Laerm;31671;48.092;11.842;2023-08-20T03:21:55;28.99;27.39;30.35;;
45964;Laerm;31671;48.092;11.842;2023-08-20T03:24:20;28.96;27.58;30.06;;
45964;Laerm;31671;48.092;11.842;2023-08-20T03:26:46;29.01;27.64;33.49;;
45964;Laerm;31671;48.092;11.842;2023-08-20T03:29:12;28.99;27.80;30.36;;
45964;Laerm;31671;48.092;11.842;2023-08-20T03:31:39;29.02;27.76;35.16;;
45964;Laerm;31671;48.092;11.842;2023-08-20T03:34:04;29.04;27.56;35.67;;
45964;Laerm;31671;48.092;11.842;2023-08-20T03:36:30;29.04;27.64;30.80;;
45964;Laerm;31671;48.092;11.842;2023-08-20T03:38:56;29.04;27.58;30.85;;
45964;Laerm;31671;48.092;11.842;2023-08-20T03:41:22;29.17;27.65;35.53;;
45964;Laerm;31671;48.092;11.842;2023-08-20T03:43:47;29.09;27.78;31.36;;
45964;Laerm;31671;48.092;11.842;2023-08-20T03:46:13;29.00;27.68;34.31;;
45964;Laerm;31671;48.092;11.842;2023-08-20T03:48:40;28.97;27.68;30.23;;
45964;Laerm;31671;48.092;11.842;2023-08-20T03:51:05;29.10;27.54;31.25;;
45964;Laerm;31671;48.092;11.842;2023-08-20T03:53:31;28.99;27.80;30.16;;
45964;Laerm;31671;48.092;11.842;2023-08-20T03:55:57;29.24;27.55;32.60;;
45964;Laerm;31671;48.092;11.842;2023-08-20T03:58:22;28.99;27.67;30.36;;
45964;Laerm;31671;48.092;11.842;2023-08-20T04:00:48;29.00;27.69;30.37;;
45964;Laerm;31671;48.092;11.842;2023-08-20T04:03:14;29.11;27.67;33.27;;
45964;Laerm;31671;48.092;11.842;2023-08-20T04:05:39;30.17;27.69;35.83;;
45964;Laerm;31671;48.092;11.842;2023-08-20T04:08:05;28.99;27.70;30.10;;
45964;Laerm;31671;48.092;11.842;2023-08-20T04:10:31;29.08;27.72;34.96;;
45964;Laerm;31671;48.092;11.842;2023-08-20T04:12:58;29.08;27.69;35.02;;
45964;Laerm;31671;48.092;11.842;2023-08-20T04:15:24;29.41;27.69;38.17;;
45964;Laerm;31671;48.092;11.842;2023-08-20T04:17:49;29.04;27.67;31.71;;
45964;Laerm;31671;48.092;11.842;2023-08-20T04:20:15;29.14;27.64;32.65;;
45964;Laerm;31671;48.092;11.842;2023-08-20T04:22:41;28.93;27.61;30.33;;
45964;Laerm;31671;48.092;11.842;2023-08-20T04:25:07;29.09;27.54;34.31;;
45964;Laerm;31671;48.092;11.842;2023-08-20T04:27:33;28.98;27.61;30.81;;
45964;Laerm;31671;48.092;11.842;2023-08-20T04:29:58;28.98;27.66;30.51;;
45964;Laerm;31671;48.092;11.842;2023-08-20T04:32:24;29.02;27.73;30.89;;
45964;Laerm;31671;48.092;11.842;2023-08-20T04:34:50;29.58;27.62;34.72;;
45964;Laerm;31671;48.092;11.842;2023-08-20T04:37:16;29.02;27.60;34.02;;
45964;Laerm;31671;48.092;11.842;2023-08-20T04:39:41;28.97;27.57;30.76;;
45964;Laerm;31671;48.092;11.842;2023-08-20T04:42:07;28.94;27.46;36.86;;
45964;Laerm;31671;48.092;11.842;2023-08-20T04:44:33;29.14;27.65;37.44;;
45964;Laerm;31671;48.092;11.842;2023-08-20T04:46:59;28.91;27.60;37.93;;
45964;Laerm;31671;48.092;11.842;2023-08-20T04:49:25;29.06;27.72;36.78;;
45964;Laerm;31671;48.092;11.842;2023-08-20T04:51:51;29.47;27.60;36.51;;
45964;Laerm;31671;48.092;11.842;2023-08-20T04:54:17;28.87;27.69;35.87;;
45964;Laerm;31671;48.092;11.842;2023-08-20T04:56:43;28.97;27.53;32.46;;
45964;Laerm;31671;48.092;11.842;2023-08-20T04:59:09;29.14;27.64;37.43;;
45964;Laerm;31671;48.092;11.842;2023-08-20T05:01:49;28.93;27.68;35.70;;
45964;Laerm;31671;48.092;11.842;2023-08-20T05:04:17;30.12;27.64;37.49;;
45964;Laerm;31671;48.092;11.842;2023-08-20T05:06:43;29.09;27.56;38.31;;
45964;Laerm;31671;48.092;11.842;2023-08-20T05:09:08;29.16;27.56;35.83;;
45964;Laerm;31671;48.092;11.842;2023-08-20T05:11:34;28.96;27.73;38.18;;
45964;Laerm;31671;48.092;11.842;2023-08-20T05:14:00;28.92;27.68;30.33;;
45964;Laerm;31671;48.092;11.842;2023-08-20T05:16:25;28.96;27.53;31.85;;
45964;Laerm;31671;48.092;11.842;2023-08-20T05:18:51;28.89;27.59;30.14;;
45964;Laerm;31671;48.092;11.842;2023-08-20T05:21:17;28.88;27.56;30.19;;
45964;Laerm;31671;48.092;11.842;2023-08-20T05:23:42;29.12;27.68;31.57;;
45964;Laerm;31671;48.092;11.842;2023-08-20T05:26:08;28.93;27.60;33.64;;
45964;Laerm;31671;48.092;11.842;2023-08-20T05:28:34;29.13;27.37;31.17;;
45964;Laerm;31671;48.092;11.842;2023-08-20T05:31:00;28.87;27.38;34.76;;
45964;Laerm;31671;48.092;11.842;2023-08-20T05:33:25;28.85;27.69;33.75;;
45964;Laerm;31671;48.092;11.842;2023-08-20T05:35:51;28.86;27.60;30.74;;
45964;Laerm;31671;48.092;11.842;2023-08-20T05:38:17;28.81;27.55;30.20;;
45964;Laerm;31671;48.092;11.842;2023-08-20T05:40:44;28.82;27.28;29.95;;
45964;Laerm;31671;48.092;11.842;2023-08-20T05:43:10;29.01;27.63;31.55;;
45964;Laerm;31671;48.092;11.842;2023-08-20T05:45:36;29.01;27.64;36.88;;
45964;Laerm;31671;48.092;11.842;2023-08-20T05:48:05;29.34;27.51;34.92;;
45964;Laerm;31671;48.092;11.842;2023-08-20T05:50:31;28.91;27.46;30.85;;
45964;Laerm;31671;48.092;11.842;2023-08-20T05:52:57;29.36;27.48;38.07;;
45964;Laerm;31671;48.092;11.842;2023-08-20T05:55:22;29.08;27.78;38.20;;
45964;Laerm;31671;48.092;11.842;2023-08-20T05:57:48;29.60;27.76;38.98;;
45964;Laerm;31671;48.092;11.842;2023-08-20T06:00:14;29.24;27.50;31.80;;
45964;Laerm;31671;48.092;11.842;2023-08-20T06:02:40;29.25;27.81;36.53;;
45964;Laerm;31671;48.092;11.842;2023-08-20T06:05:06;29.39;27.98;35.20;;
45964;Laerm;31671;48.092;11.842;2023-08-20T06:07:32;29.42;27.81;35.00;;
45964;Laerm;31671;48.092;11.842;2023-08-20T06:09:57;29.42;28.24;35.11;;
45964;Laerm;31671;48.092;11.842;2023-08-20T06:12:23;29.44;28.32;36.61;;
45964;Laerm;31671;48.092;11.842;2023-08-20T06:14:49;29.49;28.08;36.86;;
45964;Laerm;31671;48.092;11.842;2023-08-20T06:17:15;29.58;28.19;36.73;;
45964;Laerm;31671;48.092;11.842;2023-08-20T06:19:41;29.70;28.41;36.44;;
45964;Laerm;31671;48.092;11.842;2023-08-20T06:22:07;31.19;28.50;52.36;;
45964;Laerm;31671;48.092;11.842;2023-08-20T06:24:33;30.88;28.40;48.04;;
45964;Laerm;31671;48.092;11.842;2023-08-20T06:26:58;31.18;28.45;42.73;;
45964;Laerm;31671;48.092;11.842;2023-08-20T06:29:24;30.44;28.68;41.72;;
45964;Laerm;31671;48.092;11.842;2023-08-20T06:31:50;30.57;28.63;41.72;;
45964;Laerm;31671;48.092;11.842;2023-08-20T06:34:15;30.41;28.66;40.78;;
45964;Laerm;31671;48.092;11.842;2023-08-20T06:36:41;29.92;28.39;36.98;;
45964;Laerm;31671;48.092;11.842;2023-08-20T06:39:07;29.92;28.54;36.54;;
45964;Laerm;31671;48.092;11.842;2023-08-20T06:41:33;29.87;28.62;36.70;;
45964;Laerm;31671;48.092;11.842;2023-08-20T06:43:59;29.83;28.64;37.07;;
45964;Laerm;31671;48.092;11.842;2023-08-20T06:46:25;29.82;28.42;35.99;;
45964;Laerm;31671;48.092;11.842;2023-08-20T06:48:50;29.98;28.60;38.60;;
45964;Laerm;31671;48.092;11.842;2023-08-20T06:51:19;29.78;28.40;36.09;;
45964;Laerm;31671;48.092;11.842;2023-08-20T06:53:44;30.00;28.49;35.93;;
45964;Laerm;31671;48.092;11.842;2023-08-20T06:56:10;29.66;28.29;36.14;;
45964;Laerm;31671;48.092;11.842;2023-08-20T06:58:37;29.70;28.21;36.83;;
45964;Laerm;31671;48.092;11.842;2023-08-20T07:01:03;29.64;28.24;37.47;;
45964;Laerm;31671;48.092;11.842;2023-08-20T07:03:29;29.61;28.30;37.33;;
45964;Laerm;31671;48.092;11.842;2023-08-20T07:05:54;29.57;28.43;35.78;;
45964;Laerm;31671;48.092;11.842;2023-08-20T07:08:20;30.24;28.11;42.51;;
45964;Laerm;31671;48.092;11.842;2023-08-20T07:10:46;29.45;28.22;34.62;;
45964;Laerm;31671;48.092;11.842;2023-08-20T07:13:11;29.34;28.10;36.52;;
45964;Laerm;31671;48.092;11.842;2023-08-20T07:15:37;29.39;27.57;34.99;;
45964;Laerm;31671;48.092;11.842;2023-08-20T07:18:03;29.40;28.04;32.76;;
45964;Laerm;31671;48.092;11.842;2023-08-20T07:20:28;29.34;27.95;38.21;;
45964;Laerm;31671;48.092;11.842;2023-08-20T07:22:54;29.54;28.00;35.73;;
45964;Laerm;31671;48.092;11.842;2023-08-20T07:25:20;29.33;27.87;39.65;;
45964;Laerm;31671;48.092;11.842;2023-08-20T07:27:45;29.33;28.05;37.23;;
45964;Laerm;31671;48.092;11.842;2023-08-20T07:30:11;29.29;27.99;36.79;;
45964;Laerm;31671;48.092;11.842;2023-08-20T07:32:37;29.08;27.73;34.96;;
45964;Laerm;31671;48.092;11.842;2023-08-20T07:35:02;30.60;27.73;49.85;;
45964;Laerm;31671;48.092;11.842;2023-08-20T07:37:28;29.10;27.75;35.79;;
45964;Laerm;31671;48.092;11.842;2023-08-20T07:39:54;29.30;27.79;40.84;;
45964;Laerm;31671;48.092;11.842;2023-08-20T07:42:19;29.14;27.59;33.71;;
45964;Laerm;31671;48.092;11.842;2023-08-20T07:44:45;29.17;27.88;36.81;;
45964;Laerm;31671;48.092;11.842;2023-08-20T07:47:11;30.64;27.96;46.95;;
45964;Laerm;31671;48.092;11.842;2023-08-20T07:49:36;29.69;27.80;42.21;;
45964;Laerm;31671;48.092;11.842;2023-08-20T07:52:02;37.79;28.03;59.09;;
45964;Laerm;31671;48.092;11.842;2023-08-20T07:54:28;34.44;27.86;57.69;;
45964;Laerm;31671;48.092;11.842;2023-08-20T07:56:54;36.17;27.38;64.23;;
45964;Laerm;31671;48.092;11.842;2023-08-20T07:59:19;30.61;27.79;45.27;;
45964;Laerm;31671;48.092;11.842;2023-08-20T08:01:45;29.81;27.73;45.55;;
45964;Laerm;31671;48.092;11.842;2023-08-20T08:04:11;29.29;27.73;42.80;;
45964;Laerm;31671;48.092;11.842;2023-08-20T08:06:36;29.08;27.66;36.50;;
45964;Laerm;31671;48.092;11.842;2023-08-20T08:09:21;29.18;27.57;39.09;;
45964;Laerm;31671;48.092;11.842;2023-08-20T08:11:47;28.97;27.64;39.95;;
45964;Laerm;31671;48.092;11.842;2023-08-20T08:14:13;29.47;27.75;41.48;;
45964;Laerm;31671;48.092;11.842;2023-08-20T08:16:38;28.98;27.80;39.37;;
45964;Laerm;31671;48.092;11.842;2023-08-20T08:19:04;29.06;27.26;37.94;;
45964;Laerm;31671;48.092;11.842;2023-08-20T08:21:30;29.05;27.55;38.75;;
45964;Laerm;31671;48.092;11.842;2023-08-20T08:23:55;28.90;27.58;38.87;;
45964;Laerm;31671;48.092;11.842;2023-08-20T08:26:21;33.28;27.60;59.78;;
45964;Laerm;31671;48.092;11.842;2023-08-20T08:28:47;29.03;27.51;40.00;;
45964;Laerm;31671;48.092;11.842;2023-08-20T08:31:12;28.83;27.54;39.12;;
45964;Laerm;31671;48.092;11.842;2023-08-20T08:33:38;30.49;27.29;53.47;;
45964;Laerm;31671;48.092;11.842;2023-08-20T08:36:04;28.99;27.57;40.41;;
45964;Laerm;31671;48.092;11.842;2023-08-20T08:38:29;30.82;27.34;49.32;;
45964;Laerm;31671;48.092;11.842;2023-08-20T08:40:55;28.98;27.35;38.86;;
45964;Laerm;31671;48.092;11.842;2023-08-20T08:43:21;29.03;27.30;39.85;;
45964;Laerm;31671;48.092;11.842;2023-08-20T08:45:47;30.23;27.34;45.88;;
45964;Laerm;31671;48.092;11.842;2023-08-20T08:48:12;32.01;27.55;55.87;;
45964;Laerm;31671;48.092;11.842;2023-08-20T08:50:38;29.10;27.38;40.94;;
45964;Laerm;31671;48.092;11.842;2023-08-20T08:53:05;28.86;27.44;35.44;;
45964;Laerm;31671;48.092;11.842;2023-08-20T08:55:31;29.08;27.45;42.31;;
45964;Laerm;31671;48.092;11.842;2023-08-20T08:57:57;29.01;27.42;41.89;;
45964;Laerm;31671;48.092;11.842;2023-08-20T09:00:23;35.67;27.40;55.53;;
45964;Laerm;31671;48.092;11.842;2023-08-20T09:02:49;29.61;27.55;43.41;;
45964;Laerm;31671;48.092;11.842;2023-08-20T09:05:14;28.76;27.49;37.68;;
45964;Laerm;31671;48.092;11.842;2023-08-20T09:07:43;29.93;27.62;44.50;;
45964;Laerm;31671;48.092;11.842;2023-08-20T09:10:09;41.71;27.40;61.92;;
45964;Laerm;31671;48.092;11.842;2023-08-20T09:12:34;43.09;27.51;65.15;;
45964;Laerm;31671;48.092;11.842;2023-08-20T09:15:00;43.91;27.71;62.05;;
45964;Laerm;31671;48.092;11.842;2023-08-20T09:17:26;40.49;27.79;59.75;;
45964;Laerm;31671;48.092;11.842;2023-08-20T09:19:52;37.71;27.47;59.74;;
45964;Laerm;31671;48.092;11.842;2023-08-20T09:22:19;42.97;27.49;62.75;;
45964;Laerm;31671;48.092;11.842;2023-08-20T09:24:45;47.06;27.54;66.28;;
45964;Laerm;31671;48.092;11.842;2023-08-20T09:27:11;44.14;27.58;63.71;;
45964;Laerm;31671;48.092;11.842;2023-08-20T09:29:43;41.81;27.77;62.54;;
45964;Laerm;31671;48.092;11.842;2023-08-20T09:32:09;36.85;27.46;59.37;;
45964;Laerm;31671;48.092;11.842;2023-08-20T09:34:38;44.77;27.58;65.15;;
45964;Laerm;31671;48.092;11.842;2023-08-20T09:37:05;39.62;27.42;65.02;;
45964;Laerm;31671;48.092;11.842;2023-08-20T09:39:32;41.75;27.51;65.30;;
45964;Laerm;31671;48.092;11.842;2023-08-20T09:41:59;44.78;27.69;61.93;;
45964;Laerm;31671;48.092;11.842;2023-08-20T09:44:25;40.40;27.51;59.90;;
45964;Laerm;31671;48.092;11.842;2023-08-20T09:46:52;32.29;27.67;54.03;;
45964;Laerm;31671;48.092;11.842;2023-08-20T09:49:18;40.72;27.54;62.75;;
45964;Laerm;31671;48.092;11.842;2023-08-20T09:51:45;36.32;27.41;54.10;;
45964;Laerm;31671;48.092;11.842;2023-08-20T09:54:19;32.67;27.30;53.05;;
45964;Laerm;31671;48.092;11.842;2023-08-20T09:56:46;29.89;27.36;47.26;;
45964;Laerm;31671;48.092;11.842;2023-08-20T09:59:16;40.67;27.71;57.68;;
45964;Laerm;31671;48.092;11.842;2023-08-20T10:01:42;42.84;27.09;65.91;;
45964;Laerm;31671;48.092;11.842;2023-08-20T10:04:09;42.90;27.38;62.74;;
45964;Laerm;31671;48.092;11.842;2023-08-20T10:06:35;41.94;27.43;61.11;;
45964;Laerm;31671;48.092;11.842;2023-08-20T10:09:02;44.20;27.50;63.50;;
45964;Laerm;31671;48.092;11.842;2023-08-20T10:11:28;47.77;27.35;66.51;;
45964;Laerm;31671;48.092;11.842;2023-08-20T10:13:54;37.86;27.53;55.78;;
45964;Laerm;31671;48.092;11.842;2023-08-20T10:16:20;37.65;27.46;55.89;;
45964;Laerm;31671;48.092;11.842;2023-08-20T10:18:46;32.16;27.43;51.83;;
45964;Laerm;31671;48.092;11.842;2023-08-20T10:21:12;36.24;26.88;56.41;;
45964;Laerm;31671;48.092;11.842;2023-08-20T10:23:40;28.92;27.44;38.41;;
45964;Laerm;31671;48.092;11.842;2023-08-20T10:26:06;42.70;27.54;60.58;;
45964;Laerm;31671;48.092;11.842;2023-08-20T10:28:32;39.73;27.27;59.46;;
45964;Laerm;31671;48.092;11.842;2023-08-20T10:33:29;44.59;27.62;65.80;;
45964;Laerm;31671;48.092;11.842;2023-08-20T10:35:55;36.93;27.38;56.75;;
45964;Laerm;31671;48.092;11.842;2023-08-20T10:38:20;37.22;27.52;61.74;;
45964;Laerm;31671;48.092;11.842;2023-08-20T10:40:56;47.68;27.59;68.01;;
45964;Laerm;31671;48.092;11.842;2023-08-20T10:43:29;39.46;27.31;57.52;;
45964;Laerm;31671;48.092;11.842;2023-08-20T10:48:38;38.81;27.36;61.27;;
45964;Laerm;31671;48.092;11.842;2023-08-20T10:51:11;36.08;27.01;58.23;;
45964;Laerm;31671;48.092;11.842;2023-08-20T10:53:37;38.44;27.33;57.74;;
45964;Laerm;31671;48.092;11.842;2023-08-20T10:56:09;29.45;27.52;48.10;;
45964;Laerm;31671;48.092;11.842;2023-08-20T10:58:35;39.14;27.45;61.23;;
45964;Laerm;31671;48.092;11.842;2023-08-20T11:01:19;28.98;27.39;39.84;;
45964;Laerm;31671;48.092;11.842;2023-08-20T11:03:45;41.68;27.27;61.42;;
45964;Laerm;31671;48.092;11.842;2023-08-20T11:06:11;33.63;27.40;52.22;;
45964;Laerm;31671;48.092;11.842;2023-08-20T11:08:37;34.24;26.93;53.08;;
45964;Laerm;31671;48.092;11.842;2023-08-20T11:11:03;35.52;27.26;58.95;;
45964;Laerm;31671;48.092;11.842;2023-08-20T11:13:32;32.81;27.19;55.90;;
45964;Laerm;31671;48.092;11.842;2023-08-20T11:15:58;30.47;27.38;50.92;;
45964;Laerm;31671;48.092;11.842;2023-08-20T11:18:24;28.85;27.35;40.83;;
45964;Laerm;31671;48.092;11.842;2023-08-20T11:20:50;49.03;27.45;66.65;;
45964;Laerm;31671;48.092;11.842;2023-08-20T11:23:16;41.26;27.37;62.32;;
45964;Laerm;31671;48.092;11.842;2023-08-20T11:25:42;39.75;27.30;60.71;;
45964;Laerm;31671;48.092;11.842;2023-08-20T11:28:08;37.79;27.23;56.86;;
45964;Laerm;31671;48.092;11.842;2023-08-20T11:30:34;31.02;27.42;47.00;;
45964;Laerm;31671;48.092;11.842;2023-08-20T11:33:00;46.61;27.33;65.26;;
45964;Laerm;31671;48.092;11.842;2023-08-20T11:35:25;30.76;27.24;51.83;;
45964;Laerm;31671;48.092;11.842;2023-08-20T11:37:52;28.64;27.33;40.97;;
45964;Laerm;31671;48.092;11.842;2023-08-20T11:40:21;42.25;27.22;60.56;;
45964;Laerm;31671;48.092;11.842;2023-08-20T11:42:47;34.56;27.40;51.97;;
45964;Laerm;31671;48.092;11.842;2023-08-20T11:45:12;40.49;27.19;59.39;;
45964;Laerm;31671;48.092;11.842;2023-08-20T11:47:39;34.52;27.42;56.35;;
45964;Laerm;31671;48.092;11.842;2023-08-20T11:50:05;39.35;27.21;61.57;;
45964;Laerm;31671;48.092;11.842;2023-08-20T11:52:31;34.57;27.20;56.64;;
45964;Laerm;31671;48.092;11.842;2023-08-20T11:54:57;33.50;27.17;56.46;;
45964;Laerm;31671;48.092;11.842;2023-08-20T11:57:23;41.42;27.37;61.39;;
45964;Laerm;31671;48.092;11.842;2023-08-20T11:59:49;30.10;27.23;51.51;;
45964;Laerm;31671;48.092;11.842;2023-08-20T12:02:14;28.45;27.23;33.36;;
45964;Laerm;31671;48.092;11.842;2023-08-20T12:04:40;34.19;27.36;56.59;;
45964;Laerm;31671;48.092;11.842;2023-08-20T12:07:09;32.33;27.25;54.24;;
45964;Laerm;31671;48.092;11.842;2023-08-20T12:09:35;34.12;27.12;53.07;;
45964;Laerm;31671;48.092;11.842;2023-08-20T12:12:01;38.28;27.08;55.85;;
45964;Laerm;31671;48.092;11.842;2023-08-20T12:14:27;31.93;27.33;50.87;;
45964;Laerm;31671;48.092;11.842;2023-08-20T12:16:55;40.31;27.33;59.70;;
45964;Laerm;31671;48.092;11.842;2023-08-20T12:19:21;37.22;27.55;57.46;;
45964;Laerm;31671;48.092;11.842;2023-08-20T12:21:47;31.38;27.48;46.48;;
45964;Laerm;31671;48.092;11.842;2023-08-20T12:24:13;43.71;27.59;65.64;;
45964;Laerm;31671;48.092;11.842;2023-08-20T12:26:39;35.59;27.83;51.13;;
45964;Laerm;31671;48.092;11.842;2023-08-20T12:29:05;36.15;27.56;57.18;;
45964;Laerm;31671;48.092;11.842;2023-08-20T12:31:31;49.65;27.66;66.97;;
45964;Laerm;31671;48.092;11.842;2023-08-20T12:33:57;38.73;27.46;57.44;;
45964;Laerm;31671;48.092;11.842;2023-08-20T12:36:22;34.93;27.47;53.94;;
45964;Laerm;31671;48.092;11.842;2023-08-20T12:38:48;31.23;27.44;48.37;;
45964;Laerm;31671;48.092;11.842;2023-08-20T12:41:14;32.86;27.43;54.25;;
45964;Laerm;31671;48.092;11.842;2023-08-20T12:43:39;34.59;27.60;55.71;;
45964;Laerm;31671;48.092;11.842;2023-08-20T12:46:05;31.81;27.36;49.92;;
45964;Laerm;31671;48.092;11.842;2023-08-20T12:48:31;34.29;27.42;50.20;;
45964;Laerm;31671;48.092;11.842;2023-08-20T12:50:57;37.06;27.11;55.27;;
45964;Laerm;31671;48.092;11.842;2023-08-20T12:53:22;28.50;27.29;34.59;;
45964;Laerm;31671;48.092;11.842;2023-08-20T12:55:48;41.58;27.44;58.03;;
45964;Laerm;31671;48.092;11.842;2023-08-20T12:58:14;38.57;27.21;59.15;;
45964;Laerm;31671;48.092;11.842;2023-08-20T13:00:39;39.39;27.41;58.99;;
45964;Laerm;31671;48.092;11.842;2023-08-20T13:03:05;37.58;27.08;57.91;;
45964;Laerm;31671;48.092;11.842;2023-08-20T13:05:31;32.34;27.32;50.89;;
45964;Laerm;31671;48.092;11.842;2023-08-20T13:07:57;29.07;27.25;41.32;;
45964;Laerm;31671;48.092;11.842;2023-08-20T13:10:23;35.23;27.24;56.12;;
45964;Laerm;31671;48.092;11.842;2023-08-20T13:12:50;35.79;27.64;53.11;;
45964;Laerm;31671;48.092;11.842;2023-08-20T13:15:17;38.99;27.63;60.86;;
45964;Laerm;31671;48.092;11.842;2023-08-20T13:17:43;34.75;27.47;55.89;;
45964;Laerm;31671;48.092;11.842;2023-08-20T13:20:09;35.05;27.61;54.84;;
45964;Laerm;31671;48.092;11.842;2023-08-20T13:22:34;39.26;27.25;61.43;;
45964;Laerm;31671;48.092;11.842;2023-08-20T13:25:00;35.56;27.46;56.74;;
45964;Laerm;31671;48.092;11.842;2023-08-20T13:27:26;29.86;27.29;46.53;;
45964;Laerm;31671;48.092;11.842;2023-08-20T13:29:51;42.39;27.08;59.28;;
45964;Laerm;31671;48.092;11.842;2023-08-20T13:32:17;37.98;27.50;56.27;;
45964;Laerm;31671;48.092;11.842;2023-08-20T13:34:43;31.93;27.35;53.93;;
45964;Laerm;31671;48.092;11.842;2023-08-20T13:37:08;39.36;27.48;62.02;;
45964;Laerm;31671;48.092;11.842;2023-08-20T13:39:34;41.86;27.33;62.52;;
45964;Laerm;31671;48.092;11.842;2023-08-20T13:42:00;33.69;27.16;55.03;;